Time;durP1;ratioP1;P1;durP2;ratioP2;P2;SDS_P1;SDS_P2;PMS_P1;PMS_P2;Temp;Humidity;BMP_temperature;BMP_pressure;BME280_temperature;BME280_humidity;BME280_pressure;Samples;Min_cycle;Max_cycle;Signal;HPM_P1;HPM_P2
2021/12/07 00:01:35;;;;;;;21.58;2.50;;;;;;;5.34;85.78;100403.13;5054670;28;20607;-43
2021/12/07 00:04:00;;;;;;;19.33;2.85;;;;;;;5.31;84.82;100408.78;5053536;28;20135;-43
2021/12/07 00:06:26;;;;;;;28.52;3.08;;;;;;;5.32;84.44;100421.16;5054728;28;20036;-42
2021/12/07 00:08:54;;;;;;;18.17;3.58;;;;;;;5.31;84.32;100416.78;5054544;28;20539;-43
2021/12/07 00:11:22;;;;;;;15.70;2.47;;;;;;;5.34;83.34;100421.81;5053281;28;20029;-42
2021/12/07 00:13:48;;;;;;;32.63;3.00;;;;;;;5.35;84.14;100420.00;5053324;28;20045;-43
2021/12/07 00:16:13;;;;;;;22.60;3.08;;;;;;;5.27;84.02;100423.47;5054664;28;20457;-44
2021/12/07 00:18:40;;;;;;;25.33;2.83;;;;;;;5.30;83.54;100435.66;5054473;28;20053;-42
2021/12/07 00:21:07;;;;;;;22.15;2.38;;;;;;;5.33;82.13;100425.47;5054482;28;20530;-43
2021/12/07 00:23:33;;;;;;;17.98;2.88;;;;;;;5.37;81.70;100442.88;5053930;28;20100;-42
2021/12/07 00:25:58;;;;;;;21.95;2.55;;;;;;;5.41;81.84;100441.53;5054380;28;20456;-43
2021/12/07 00:28:24;;;;;;;19.27;2.83;;;;;;;5.42;81.46;100434.38;5054358;28;20036;-42
2021/12/07 00:30:51;;;;;;;17.73;2.78;;;;;;;5.36;82.24;100443.84;5054550;28;20025;-42
2021/12/07 00:35:53;;;;;;;32.22;3.35;;;;;;;5.40;82.81;100455.06;5053231;28;20047;-41
2021/12/07 00:38:21;;;;;;;20.50;3.00;;;;;;;5.31;83.58;100456.81;5086526;28;20384;-41
2021/12/07 00:40:48;;;;;;;31.33;3.58;;;;;;;5.25;83.97;100457.47;5054104;28;20100;-42
2021/12/07 00:43:13;;;;;;;19.63;2.50;;;;;;;5.19;83.64;100455.44;5054122;28;20473;-42
2021/12/07 00:45:41;;;;;;;24.25;3.20;;;;;;;5.20;83.03;100455.25;5054172;28;20033;-41
2021/12/07 00:48:07;;;;;;;;;;;;;;;5.22;81.63;100463.94;5054598;28;20017;-41
2021/12/07 00:50:34;;;;;;;24.58;2.97;;;;;;;5.29;81.05;100472.13;5054077;28;19991;-41
2021/12/07 00:53:02;;;;;;;23.63;2.83;;;;;;;5.28;81.52;100473.16;5053898;28;20024;-46
2021/12/07 00:55:30;;;;;;;14.82;2.40;;;;;;;5.33;82.31;100475.34;5054202;28;20029;-41
2021/12/07 00:58:00;;;;;;;19.05;2.08;;;;;;;5.28;82.78;100481.16;5053931;28;20480;-42
2021/12/07 01:00:28;;;;;;;29.80;3.08;;;;;;;5.26;82.69;100491.97;5053965;28;20029;-43
2021/12/07 01:02:54;;;;;;;21.10;2.67;;;;;;;5.31;83.32;100494.19;5054027;28;20057;-42
2021/12/07 01:05:26;;;;;;;42.88;3.95;;;;;;;5.28;82.65;100502.50;5053937;28;20028;-42
2021/12/07 01:08:12;;;;;;;27.40;3.20;;;;;;;5.30;82.74;100505.84;5053690;28;20043;-42
2021/12/07 01:27:04;;;;;;;22.33;3.22;;;;;;;5.22;84.19;100519.13;5053304;28;20052;-42
2021/12/07 01:29:30;;;;;;;38.17;5.13;;;;;;;5.27;84.75;100525.69;5053332;28;20032;-42
2021/12/07 01:39:57;;;;;;;15.35;2.72;;;;;;;5.24;81.20;100542.00;5033182;28;20041;-42
2021/12/07 02:01:05;;;;;;;18.30;2.60;;;;;;;5.15;81.43;100587.44;5032939;28;20115;-42
2021/12/07 02:03:31;;;;;;;17.08;2.85;;;;;;;5.12;82.55;100595.75;5032549;28;20477;-42
2021/12/07 02:05:56;;;;;;;17.92;2.92;;;;;;;5.11;82.67;100596.72;5045834;28;20032;-42
2021/12/07 02:08:22;;;;;;;20.90;2.88;;;;;;;5.10;82.44;100592.38;5060285;28;20032;-41
2021/12/07 02:10:48;;;;;;;19.23;2.78;;;;;;;5.15;82.08;100596.28;5052629;28;20372;-42
2021/12/07 02:15:57;;;;;;;17.67;2.30;;;;;;;5.13;83.85;100614.25;5052444;28;20095;-43
2021/12/07 02:18:23;;;;;;;21.42;2.83;;;;;;;5.16;83.29;100610.44;5052347;28;20036;-42
2021/12/07 02:20:50;;;;;;;23.52;3.40;;;;;;;5.23;83.52;100617.69;5052250;28;20024;-42
2021/12/07 02:23:15;;;;;;;17.05;2.50;;;;;;;5.21;84.56;100621.50;5050696;28;20037;-46
2021/12/07 02:25:41;;;;;;;16.13;2.97;;;;;;;5.15;84.79;100625.63;5052614;28;20043;-45
2021/12/07 02:28:12;;;;;;;17.08;3.65;;;;;;;5.08;86.17;100632.53;5050841;28;20025;-46
2021/12/07 02:30:37;;;;;;;15.32;2.25;;;;;;;5.10;85.01;100625.22;5052292;28;20025;-45
2021/12/07 02:33:03;;;;;;;23.88;3.28;;;;;;;5.15;84.61;100630.13;5052059;28;20029;-43
2021/12/07 02:35:28;;;;;;;15.50;2.90;;;;;;;5.21;84.68;100629.50;5052000;28;20108;-43
2021/12/07 02:37:56;;;;;;;27.95;3.88;;;;;;;5.12;85.11;100638.44;5051948;28;20108;-42
2021/12/07 02:40:21;;;;;;;16.27;2.22;;;;;;;5.10;83.97;100635.06;5052055;28;20460;-42
2021/12/07 02:42:47;;;;;;;14.60;2.10;;;;;;;5.06;85.03;100640.72;5050972;28;20025;-42
2021/12/07 02:45:13;;;;;;;25.23;2.67;;;;;;;5.06;84.57;100635.38;5051915;28;20032;-41
2021/12/07 02:47:39;;;;;;;23.55;2.67;;;;;;;5.03;84.78;100643.69;5055791;28;20029;-42
2021/12/07 02:50:06;;;;;;;27.13;3.28;;;;;;;5.01;84.73;100643.00;5055962;28;20032;-41
2021/12/07 02:52:31;;;;;;;24.60;2.80;;;;;;;5.01;84.54;100647.50;5056154;28;20036;-41
2021/12/07 02:54:57;;;;;;;24.20;2.80;;;;;;;4.97;84.81;100638.94;5055857;28;20388;-41
2021/12/07 02:57:22;;;;;;;16.17;2.03;;;;;;;4.94;85.21;100647.25;5055897;28;20047;-42
2021/12/07 02:59:57;;;;;;;19.23;2.55;;;;;;;4.91;85.62;100647.53;5055873;28;20094;-41
2021/12/07 03:02:23;;;;;;;14.98;2.15;;;;;;;4.91;85.27;100647.53;5054575;28;20025;-41
2021/12/07 03:05:14;;;;;;;21.25;3.00;;;;;;;4.94;85.15;100652.56;5055746;28;20024;-42
2021/12/07 03:27:15;;;;;;;25.80;2.42;;;;;;;5.15;82.41;100686.13;5055759;28;20051;-42
2021/12/07 03:29:41;;;;;;;19.30;2.95;;;;;;;5.18;82.75;100692.00;5055250;28;20396;-42
2021/12/07 03:32:06;;;;;;;18.08;2.30;;;;;;;5.15;82.08;100686.97;5055385;28;20108;-42
2021/12/07 03:34:31;;;;;;;16.75;2.22;;;;;;;5.13;82.51;100685.44;5054986;28;20029;-41
2021/12/07 03:36:57;;;;;;;16.98;1.80;;;;;;;5.17;81.08;100694.84;5055188;28;20048;-42
2021/12/07 03:39:22;;;;;;;18.52;2.13;;;;;;;5.14;81.58;100697.81;5055107;28;20021;-42
2021/12/07 03:41:48;;;;;;;18.83;2.45;;;;;;;5.15;81.58;100700.31;5055024;28;20032;-41
2021/12/07 03:44:13;;;;;;;17.70;1.67;;;;;;;5.13;81.78;100690.78;5054897;28;20025;-41
2021/12/07 03:46:39;;;;;;;13.65;2.03;;;;;;;5.14;81.64;100689.81;5055082;28;20111;-42
2021/12/07 03:49:04;;;;;;;19.35;2.00;;;;;;;5.10;82.68;100704.41;5054844;28;20484;-42
2021/12/07 03:51:29;;;;;;;16.73;2.17;;;;;;;5.14;81.41;100705.81;5054920;28;20087;-42
2021/12/07 03:53:55;;;;;;;17.27;2.42;;;;;;;5.15;81.91;100696.81;5054610;28;20025;-42
2021/12/07 03:56:20;;;;;;;13.27;2.30;;;;;;;5.13;82.58;100699.63;5054751;28;20025;-42
2021/12/07 03:58:45;;;;;;;16.48;2.47;;;;;;;5.12;82.53;100699.78;5053744;28;20104;-42
2021/12/07 04:01:12;;;;;;;21.48;2.28;;;;;;;5.11;82.73;100692.75;5045840;28;20483;-42
2021/12/07 04:03:37;;;;;;;14.70;2.45;;;;;;;5.09;83.05;100697.44;5033444;28;20088;-42
2021/12/07 04:06:07;;;;;;;20.92;2.40;;;;;;;5.04;83.05;100705.88;5033424;28;20025;-41
2021/12/07 04:08:37;;;;;;;23.70;2.35;;;;;;;5.01;82.92;100716.84;5034712;28;20026;-42
2021/12/07 04:11:03;;;;;;;16.23;2.47;;;;;;;4.96;83.56;100705.78;5034597;28;20060;-41
2021/12/07 04:13:29;;;;;;;21.90;2.78;;;;;;;4.90;83.21;100701.88;5034141;28;20046;-42
2021/12/07 04:15:54;;;;;;;18.92;3.05;;;;;;;4.92;83.20;100718.53;5034473;28;20385;-41
2021/12/07 04:18:20;;;;;;;13.77;3.08;;;;;;;4.89;83.37;100715.34;5034532;28;20026;-42
2021/12/07 04:20:45;;;;;;;21.83;1.98;;;;;;;4.84;83.93;100718.44;5034496;28;20400;-42
2021/12/07 04:23:11;;;;;;;15.70;1.98;;;;;;;4.78;82.74;100719.06;5033028;28;20033;-42
2021/12/07 04:25:36;;;;;;;13.88;2.33;;;;;;;4.79;82.38;100712.72;5034356;28;20021;-42
2021/12/07 04:28:03;;;;;;;18.98;2.13;;;;;;;4.75;82.75;100708.69;5034299;28;20033;-42
2021/12/07 04:30:34;;;;;;;18.30;2.35;;;;;;;4.73;82.37;100727.47;5034540;28;20373;-41
2021/12/07 04:33:01;;;;;;;16.27;2.08;;;;;;;4.73;82.21;100730.16;5043805;28;20040;-42
2021/12/07 04:35:28;;;;;;;18.83;2.23;;;;;;;4.74;82.45;100725.66;5052834;28;20025;-41
2021/12/07 04:37:54;;;;;;;10.90;2.03;;;;;;;4.74;82.48;100730.97;5052841;28;20033;-42
2021/12/07 04:40:24;;;;;;;14.90;2.47;;;;;;;4.78;81.86;100729.72;5053848;28;20021;-42
2021/12/07 04:42:50;;;;;;;12.45;2.03;;;;;;;4.79;81.98;100723.38;5054303;28;20384;-42
2021/12/07 04:48:25;;;;;;;15.23;2.72;;;;;;;4.80;82.54;100733.91;5052777;28;20044;-41
2021/12/07 04:58:49;;;;;;;12.05;2.13;;;;;;;4.60;82.54;100746.47;5054175;28;20043;-42
2021/12/07 05:01:15;;;;;;;19.60;3.25;;;;;;;4.54;82.49;100752.38;5054232;28;20392;-41
2021/12/07 05:03:42;;;;;;;11.32;2.13;;;;;;;4.52;82.62;100756.19;5054214;28;20029;-43
2021/12/07 05:06:09;;;;;;;17.75;2.70;;;;;;;4.46;82.38;100762.94;5054991;28;20438;-42
2021/12/07 05:08:47;;;;;;;14.00;2.50;;;;;;;4.44;82.93;100759.56;5054411;28;20024;-41
2021/12/07 05:11:29;;;;;;;21.98;3.53;;;;;;;4.47;82.81;100761.94;5052570;28;20036;-41
2021/12/07 05:14:16;;;;;;;11.57;2.08;;;;;;;4.44;82.60;100762.22;5041092;28;20052;-41
2021/12/07 05:23:55;;;;;;;13.13;1.90;;;;;;;4.40;82.61;100772.34;5051568;28;20040;-41
2021/12/07 05:38:16;;;;;;;10.30;2.22;;;;;;;4.24;82.47;100801.41;5052086;28;20039;-41
2021/12/07 05:40:42;;;;;;;23.05;2.70;;;;;;;4.22;82.10;100798.03;5052708;28;20017;-41
2021/12/07 05:43:07;;;;;;;15.43;2.38;;;;;;;4.21;82.46;100798.16;5052824;28;20112;-42
2021/12/07 05:45:36;;;;;;;17.27;2.22;;;;;;;4.19;83.26;100798.31;5035960;28;20116;-42
2021/12/07 05:48:03;;;;;;;14.65;2.45;;;;;;;4.26;81.76;100790.59;5032791;28;20026;-42
2021/12/07 05:50:31;;;;;;;11.18;2.45;;;;;;;4.27;82.53;100773.66;5034146;28;20033;-41
2021/12/07 05:52:57;;;;;;;15.88;2.67;;;;;;;4.31;82.71;100777.69;5052132;28;20025;-41
2021/12/07 05:55:22;;;;;;;17.83;2.47;;;;;;;4.30;82.52;100776.03;5051264;28;20547;-41
2021/12/07 05:57:48;;;;;;;19.63;2.78;;;;;;;4.31;82.81;100775.84;5042282;28;20035;-41
2021/12/07 06:00:24;;;;;;;12.10;2.65;;;;;;;4.27;83.06;100776.31;5032724;28;20059;-42
2021/12/07 06:02:55;;;;;;;26.35;4.20;;;;;;;4.22;83.10;100779.41;5032695;28;20033;-41
2021/12/07 06:05:22;;;;;;;18.45;2.33;;;;;;;4.20;83.52;100781.34;5050848;28;20039;-41
2021/12/07 06:07:47;;;;;;;20.10;3.08;;;;;;;4.19;83.90;100785.00;5052150;28;20032;-41
2021/12/07 06:10:13;;;;;;;19.58;3.40;;;;;;;4.20;84.31;100785.84;5050981;28;20043;-41
2021/12/07 06:12:38;;;;;;;26.95;3.58;;;;;;;4.20;84.53;100791.16;5051967;28;20128;-42
2021/12/07 06:15:04;;;;;;;26.23;4.03;;;;;;;4.17;84.30;100787.81;5051935;28;20021;-41
2021/12/07 06:17:30;;;;;;;27.77;3.65;;;;;;;4.17;84.47;100786.97;5052012;28;20029;-41
2021/12/07 06:19:55;;;;;;;23.25;3.35;;;;;;;4.11;83.90;100783.06;5052336;28;20391;-41
2021/12/07 06:22:20;;;;;;;15.07;4.00;;;;;;;4.07;84.24;100778.97;5051881;28;20029;-42
2021/12/07 06:24:46;;;;;;;18.17;2.75;;;;;;;4.09;84.37;100784.19;5052106;28;20443;-41
2021/12/07 06:27:11;;;;;;;19.42;2.47;;;;;;;4.08;85.09;100779.81;5052076;28;20476;-41
2021/12/07 06:29:36;;;;;;;21.00;3.00;;;;;;;4.07;84.95;100781.63;5052251;28;20511;-41
2021/12/07 06:32:02;;;;;;;15.85;2.70;;;;;;;4.07;85.07;100781.63;5051859;28;20039;-42
2021/12/07 06:34:28;;;;;;;16.13;2.78;;;;;;;4.07;84.53;100789.63;5050617;28;20025;-42
2021/12/07 06:36:53;;;;;;;19.58;2.63;;;;;;;4.07;84.98;100786.97;5051926;28;20025;-41
2021/12/07 06:39:20;;;;;;;18.42;2.08;;;;;;;4.10;85.10;100789.34;5051757;28;20036;-41
2021/12/07 06:41:46;;;;;;;12.33;2.50;;;;;;;4.09;85.01;100795.66;5050640;28;20377;-41
2021/12/07 06:44:11;;;;;;;14.35;2.28;;;;;;;4.09;84.94;100793.00;5051948;28;20284;-41
2021/12/07 06:46:36;;;;;;;21.63;3.45;;;;;;;4.10;84.46;100786.69;5033938;28;20064;-43
2021/12/07 06:49:03;;;;;;;25.35;3.97;;;;;;;4.07;84.29;100786.13;5051731;28;20029;-42
2021/12/07 06:51:28;;;;;;;18.92;3.20;;;;;;;4.02;85.08;100785.72;5050570;28;20032;-40
2021/12/07 06:53:54;;;;;;;24.67;2.50;;;;;;;4.02;84.93;100793.69;5051495;28;20471;-41
2021/12/07 06:56:19;;;;;;;26.00;3.05;;;;;;;4.01;85.27;100792.03;5051938;28;20560;-42
2021/12/07 06:58:45;;;;;;;14.43;2.40;;;;;;;4.02;84.85;100791.88;5052005;28;20100;-43
2021/12/07 07:01:11;;;;;;;30.70;3.63;;;;;;;4.01;84.71;100792.88;5051798;28;20048;-42
2021/12/07 07:03:37;;;;;;;16.75;2.75;;;;;;;4.02;85.08;100797.19;5051566;28;20031;-42
2021/12/07 07:06:03;;;;;;;23.58;3.13;;;;;;;4.04;84.80;100797.06;5051564;28;20108;-41
2021/12/07 07:08:29;;;;;;;15.23;2.70;;;;;;;4.05;84.87;100804.91;5049620;28;20033;-41
2021/12/07 07:10:54;;;;;;;19.15;3.03;;;;;;;4.05;84.96;100801.41;5031433;28;20026;-41
2021/12/07 07:13:20;;;;;;;14.27;2.42;;;;;;;4.02;84.66;100799.03;5031396;28;20081;-41
2021/12/07 07:15:45;;;;;;;17.77;2.38;;;;;;;4.00;85.50;100795.66;5043879;28;20013;-42
2021/12/07 07:18:10;;;;;;;10.93;2.80;;;;;;;3.96;85.07;100795.94;5051174;28;20432;-40
2021/12/07 07:20:36;;;;;;;13.02;2.25;;;;;;;3.90;85.41;100785.03;5051246;28;20036;-41
2021/12/07 07:23:02;;;;;;;19.98;2.63;;;;;;;3.81;85.70;100777.88;5049869;28;20040;-40
2021/12/07 07:25:28;;;;;;;13.85;2.38;;;;;;;3.75;86.46;100771.28;5051039;28;20029;-40
2021/12/07 07:27:53;;;;;;;14.30;3.00;;;;;;;3.69;86.20;100762.03;5051057;28;20036;-41
2021/12/07 07:30:19;;;;;;;19.05;2.97;;;;;;;3.64;86.00;100761.59;5083389;28;20033;-42
2021/12/07 07:32:45;;;;;;;20.80;3.40;;;;;;;3.60;86.97;100762.84;5050649;28;20032;-41
2021/12/07 07:35:12;;;;;;;19.83;3.72;;;;;;;3.61;87.60;100767.22;5054492;28;20029;-42
2021/12/07 07:37:38;;;;;;;15.88;2.83;;;;;;;3.63;88.10;100765.22;5054448;28;20147;-42
2021/12/07 07:40:05;;;;;;;21.33;3.78;;;;;;;3.68;87.44;100765.66;5054829;28;20040;-41
2021/12/07 07:42:31;;;;;;;13.30;3.75;;;;;;;3.73;87.62;100762.59;5054694;28;20116;-42
2021/12/07 07:44:56;;;;;;;18.27;2.53;;;;;;;3.78;87.22;100764.84;5054457;28;20021;-42
2021/12/07 07:47:22;;;;;;;22.42;3.22;;;;;;;3.83;87.08;100767.91;5053060;28;20029;-42
2021/12/07 07:49:47;;;;;;;16.92;2.40;;;;;;;3.88;87.10;100771.00;5054301;28;20024;-43
2021/12/07 07:52:12;;;;;;;13.90;2.33;;;;;;;3.90;86.92;100769.06;5054360;28;20510;-43
2021/12/07 07:54:38;;;;;;;23.60;2.72;;;;;;;3.90;86.72;100775.22;5054661;28;20029;-42
2021/12/07 07:57:03;;;;;;;32.63;2.80;;;;;;;3.93;86.55;100766.09;5053335;28;20035;-43
2021/12/07 07:59:29;;;;;;;20.17;3.03;;;;;;;3.99;86.43;100772.69;5054936;28;20032;-42
2021/12/07 08:01:55;;;;;;;16.30;3.15;;;;;;;4.04;86.15;100775.75;5054665;28;20068;-42
2021/12/07 08:04:20;;;;;;;16.10;2.60;;;;;;;4.10;85.82;100780.53;5054887;28;20056;-42
2021/12/07 08:06:45;;;;;;;15.15;2.67;;;;;;;4.17;85.90;100778.97;5055024;28;20021;-42
2021/12/07 08:09:10;;;;;;;20.35;2.58;;;;;;;4.19;85.28;100779.69;5054831;28;20021;-42
2021/12/07 08:11:36;;;;;;;15.80;2.30;;;;;;;4.21;84.92;100776.84;5054601;28;20036;-42
2021/12/07 08:14:02;;;;;;;11.23;2.60;;;;;;;4.25;84.99;100786.25;5054035;28;20045;-42
2021/12/07 08:16:28;;;;;;;17.98;2.97;;;;;;;4.26;84.72;100777.28;5054600;28;20021;-42
2021/12/07 08:18:53;;;;;;;18.02;2.55;;;;;;;4.26;84.44;100783.44;5054421;28;20465;-42
2021/12/07 08:21:20;;;;;;;19.98;3.58;;;;;;;4.24;84.60;100787.22;5052998;28;20762;-42
2021/12/07 08:23:46;;;;;;;13.80;2.58;;;;;;;4.27;84.19;100787.81;5054402;28;20036;-42
2021/12/07 08:26:21;;;;;;;14.75;2.67;;;;;;;4.30;84.69;100773.34;5052908;28;20025;-42
2021/12/07 08:28:46;;;;;;;18.10;2.90;;;;;;;4.29;83.92;100776.97;5054233;28;20029;-41
2021/12/07 08:31:11;;;;;;;19.35;2.97;;;;;;;4.30;83.99;100790.16;5054325;28;20436;-42
2021/12/07 08:33:37;;;;;;;16.30;2.70;;;;;;;4.32;84.27;100785.56;5054080;28;20025;-42
2021/12/07 08:36:03;;;;;;;16.48;2.60;;;;;;;4.39;83.88;100785.81;5054112;28;20060;-42
2021/12/07 08:38:30;;;;;;;14.98;2.45;;;;;;;4.38;83.60;100790.28;5053944;28;20036;-42
2021/12/07 08:40:57;;;;;;;18.38;3.03;;;;;;;4.39;83.42;100781.31;5054329;28;20029;-42
2021/12/07 08:43:25;;;;;;;17.08;2.30;;;;;;;4.47;83.63;100771.75;5052084;28;20025;-42
2021/12/07 08:45:52;;;;;;;11.77;2.55;;;;;;;4.45;83.51;100771.06;5053851;28;20036;-42
2021/12/07 08:48:18;;;;;;;16.77;2.70;;;;;;;4.40;83.53;100776.84;5052560;28;20017;-42
2021/12/07 08:50:45;;;;;;;11.80;2.17;;;;;;;4.38;84.26;100763.66;5052764;28;20469;-42
2021/12/07 08:53:13;;;;;;;16.38;2.80;;;;;;;4.71;83.91;100774.78;5053842;28;20035;-42
2021/12/07 09:01:09;;;;;;;14.45;2.33;;;;;;;4.81;82.18;100780.91;5052693;28;20073;-42
2021/12/07 09:03:35;;;;;;;20.33;2.72;;;;;;;4.77;83.05;100781.38;5053842;28;20033;-42
2021/12/07 09:06:00;;;;;;;16.02;1.98;;;;;;;4.79;83.13;100771.38;5053594;28;20043;-42
2021/12/07 09:08:26;;;;;;;14.32;2.33;;;;;;;4.85;83.17;100770.81;5053404;28;20021;-42
2021/12/07 09:10:51;;;;;;;17.95;2.47;;;;;;;5.02;82.42;100770.00;5053596;28;20040;-42
2021/12/07 09:13:17;;;;;;;17.60;2.10;;;;;;;5.36;81.37;100764.09;5053369;28;20127;-41
2021/12/07 09:15:42;;;;;;;18.38;2.33;;;;;;;5.76;80.34;100770.81;5053242;28;20025;-41
2021/12/07 09:18:08;;;;;;;17.00;2.75;;;;;;;6.20;78.11;100770.06;5053261;28;20032;-42
2021/12/07 09:20:34;;;;;;;13.38;2.20;;;;;;;6.39;77.40;100772.53;5053222;28;20032;-41
2021/12/07 09:22:59;;;;;;;19.17;2.28;;;;;;;6.46;76.51;100759.41;5051984;28;20041;-42
2021/12/07 09:25:25;;;;;;;14.80;2.60;;;;;;;6.52;75.42;100756.94;5053109;28;20071;-42
2021/12/07 09:27:50;;;;;;;19.60;2.97;;;;;;;6.69;75.39;100754.34;5053027;28;20025;-42
2021/12/07 09:30:17;;;;;;;18.05;2.60;;;;;;;7.04;74.58;100758.72;5051768;28;20086;-42
2021/12/07 09:32:44;;;;;;;16.15;3.13;;;;;;;7.05;73.58;100760.38;5051837;28;20096;-41
2021/12/07 09:35:10;;;;;;;17.40;2.60;;;;;;;6.74;74.47;100763.59;5052462;28;20560;-42
2021/12/07 09:37:36;;;;;;;20.92;3.30;;;;;;;6.80;73.58;100770.97;5052757;28;20028;-41
2021/12/07 09:40:06;;;;;;;14.38;3.25;;;;;;;6.88;73.90;100791.59;5052348;28;20464;-43
2021/12/07 09:42:31;;;;;;;16.42;3.08;;;;;;;6.74;74.42;100787.66;5052721;28;20434;-43
2021/12/07 09:44:57;;;;;;;15.13;3.35;;;;;;;6.87;74.59;100789.06;5051603;28;20104;-42
2021/12/07 09:47:23;;;;;;;13.82;3.00;;;;;;;7.60;72.14;100783.16;5052716;28;20028;-42
2021/12/07 09:49:49;;;;;;;23.92;3.65;;;;;;;7.68;71.01;100778.63;5052756;28;20021;-42
2021/12/07 09:52:14;;;;;;;16.33;2.90;;;;;;;7.74;71.59;100789.69;5052596;28;20029;-42
2021/12/07 09:54:39;;;;;;;20.50;3.45;;;;;;;7.58;71.15;100802.06;5052172;28;20579;-42
2021/12/07 09:57:05;;;;;;;22.40;3.55;;;;;;;7.53;71.32;100815.13;5051779;28;20029;-42
2021/12/07 09:59:31;;;;;;;13.57;3.33;;;;;;;7.18;72.63;100792.03;5052391;28;20029;-42
2021/12/07 10:01:56;;;;;;;24.25;3.92;;;;;;;7.19;73.01;100791.06;5052542;28;20025;-42
2021/12/07 10:04:27;;;;;;;19.77;3.47;;;;;;;6.78;74.23;100789.00;5052790;28;20037;-43
2021/12/07 10:06:53;;;;;;;26.30;3.95;;;;;;;6.56;75.93;100789.56;5052096;28;20075;-43
2021/12/07 10:09:18;;;;;;;21.33;3.63;;;;;;;6.26;76.35;100782.81;5052427;28;20029;-42
2021/12/07 10:11:44;;;;;;;20.45;3.30;;;;;;;6.32;76.83;100784.88;5052401;28;20025;-42
2021/12/07 10:14:09;;;;;;;11.93;2.58;;;;;;;6.23;75.60;100778.63;5052232;28;20066;-42
2021/12/07 10:16:44;;;;;;;17.50;2.95;;;;;;;6.30;76.40;100778.84;5051448;28;20073;-42
2021/12/07 10:19:11;;;;;;;20.17;3.30;;;;;;;6.52;75.53;100778.31;5052795;28;20072;-42
2021/12/07 10:21:41;;;;;;;13.35;2.60;;;;;;;6.33;74.71;100752.63;5053160;28;20017;-43
2021/12/07 10:24:10;;;;;;;17.65;2.78;;;;;;;6.65;73.92;100748.47;5051680;28;20037;-42
2021/12/07 10:26:36;;;;;;;;;;;;;;;6.56;74.02;100733.41;5053313;28;20031;-42
2021/12/07 10:29:12;;;;;;;21.05;3.05;;;;;;;6.74;73.38;100723.47;5052565;28;20283;-42
2021/12/07 10:31:40;;;;;;;8.57;2.78;;;;;;;6.84;72.58;100731.34;5051188;28;20475;-43
2021/12/07 10:34:13;;;;;;;17.08;2.88;;;;;;;6.87;72.72;100727.53;5051086;28;20029;-42
2021/12/07 10:36:47;;;;;;;16.25;2.92;;;;;;;7.03;72.60;100722.25;5052369;28;20024;-42
2021/12/07 10:39:12;;;;;;;26.27;3.13;;;;;;;7.32;70.52;100716.50;5050988;28;20029;-41
2021/12/07 10:41:53;;;;;;;21.80;3.53;;;;;;;6.88;72.34;100718.50;5052156;28;20025;-41
2021/12/07 10:44:23;;;;;;;14.85;2.90;;;;;;;6.64;73.82;100714.72;5051885;28;20028;-42
2021/12/07 10:47:13;;;;;;;21.38;3.72;;;;;;;6.43;73.50;100719.63;5052192;28;20029;-43
2021/12/07 10:49:51;;;;;;;18.55;3.83;;;;;;;6.55;74.07;100704.97;5084306;28;20037;-41
2021/12/07 10:52:25;;;;;;;19.08;3.63;;;;;;;6.31;73.87;100705.66;5051978;28;20108;-41
2021/12/07 10:54:53;;;;;;;23.65;3.58;;;;;;;6.34;73.92;100710.69;5052201;28;20025;-41
2021/12/07 10:57:25;;;;;;;17.20;3.25;;;;;;;6.37;74.09;100710.38;5051757;28;20060;-41
2021/12/07 10:59:56;;;;;;;14.55;3.47;;;;;;;6.36;73.91;100712.22;5052152;28;20036;-41
2021/12/07 11:02:22;;;;;;;15.75;3.22;;;;;;;6.31;74.44;100703.84;5052149;28;20094;-42
2021/12/07 11:04:49;;;;;;;18.90;3.50;;;;;;;6.35;74.33;100697.19;5051782;28;20341;-42
2021/12/07 11:07:24;;;;;;;12.73;3.10;;;;;;;6.18;74.39;100695.41;5052007;28;20120;-42
2021/12/07 11:10:06;;;;;;;24.35;3.80;;;;;;;5.95;75.04;100700.44;5088208;28;20116;-42
2021/12/07 11:15:42;;;;;;;18.38;4.03;;;;;;;5.98;75.39;100677.88;5055832;28;20136;-42
2021/12/07 11:18:09;;;;;;;23.50;4.30;;;;;;;5.90;76.07;100687.50;5054000;28;20025;-42
2021/12/07 11:20:36;;;;;;;16.40;3.75;;;;;;;6.01;75.92;100690.94;5055657;28;20024;-42
2021/12/07 11:23:05;;;;;;;22.02;5.68;;;;;;;6.02;75.38;100684.59;5055727;28;20035;-42
2021/12/07 11:31:52;;;;;;;30.75;5.70;;;;;;;5.90;74.85;100659.97;5055578;28;20271;-42
2021/12/07 11:34:31;;;;;;;30.25;5.78;;;;;;;6.00;75.57;100655.38;5087452;28;20397;-41
2021/12/07 11:36:56;;;;;;;27.10;5.40;;;;;;;6.10;74.36;100637.41;5053966;28;20029;-42
2021/12/07 11:39:31;;;;;;;27.77;6.00;;;;;;;6.17;74.71;100636.78;5055100;28;20017;-43
2021/12/07 11:42:06;;;;;;;36.65;6.72;;;;;;;6.26;74.51;100623.28;5055311;28;20441;-41
2021/12/07 11:44:34;;;;;;;28.33;6.32;;;;;;;6.62;73.43;100624.97;5055191;28;20542;-42
2021/12/07 11:47:01;;;;;;;28.85;6.57;;;;;;;6.73;73.54;100613.97;5053771;28;20545;-42
2021/12/07 11:49:30;;;;;;;26.10;6.13;;;;;;;6.91;71.54;100614.69;5036774;28;20361;-41
2021/12/07 11:51:57;;;;;;;32.13;7.07;;;;;;;6.69;70.50;100592.06;5054617;28;20108;-41
2021/12/07 11:54:29;;;;;;;43.25;7.25;;;;;;;6.63;69.95;100571.31;5054830;28;20078;-41
2021/12/07 11:56:56;;;;;;;33.72;6.38;;;;;;;6.55;70.80;100568.59;5053594;28;20392;-42
2021/12/07 11:59:21;;;;;;;38.78;5.38;;;;;;;6.51;69.83;100556.59;5054717;28;20076;-42
2021/12/07 12:01:48;;;;;;;27.52;4.88;;;;;;;6.51;68.71;100551.25;5054814;28;20480;-42
2021/12/07 12:04:16;;;;;;;23.00;5.17;;;;;;;6.71;68.85;100543.75;5054474;28;20507;-41
2021/12/07 12:06:45;;;;;;;26.40;4.85;;;;;;;6.68;70.13;100541.41;5054290;28;20024;-41
2021/12/07 12:09:11;;;;;;;36.15;6.13;;;;;;;6.95;69.22;100545.63;5054364;28;20025;-41
2021/12/07 12:11:45;;;;;;;39.95;6.60;;;;;;;6.93;69.73;100544.97;5054550;28;20032;-41
2021/12/07 12:14:34;;;;;;;31.27;4.57;;;;;;;6.47;69.78;100542.69;5054104;28;20041;-41
2021/12/07 12:17:38;;;;;;;24.42;4.50;;;;;;;6.13;69.82;100542.72;5053241;28;20389;-41
2021/12/07 12:20:26;;;;;;;24.40;3.70;;;;;;;6.07;71.26;100533.53;5053189;28;20025;-41
2021/12/07 12:23:02;;;;;;;26.75;3.60;;;;;;;5.98;71.60;100517.59;5054199;28;20380;-42
2021/12/07 12:25:28;;;;;;;18.55;3.22;;;;;;;5.77;72.00;100516.16;5054107;28;20468;-42
2021/12/07 12:27:55;;;;;;;16.65;2.95;;;;;;;5.81;72.99;100509.50;5054147;28;20039;-42
2021/12/07 12:30:31;;;;;;;15.73;2.40;;;;;;;5.75;72.52;100507.47;5054242;28;20499;-42
2021/12/07 12:32:58;;;;;;;18.15;3.28;;;;;;;5.80;71.93;100502.50;5053036;28;20033;-42
2021/12/07 12:35:41;;;;;;;15.20;2.90;;;;;;;5.59;72.49;100496.69;5053497;28;20123;-41
2021/12/07 12:38:31;;;;;;;29.15;2.78;;;;;;;5.67;72.68;100454.84;5053906;28;20033;-42
2021/12/07 12:41:08;;;;;;;17.80;2.75;;;;;;;5.70;73.24;100461.72;5053445;28;20037;-41
2021/12/07 12:43:46;;;;;;;18.70;3.08;;;;;;;5.68;74.04;100469.03;5053878;28;20055;-41
2021/12/07 12:46:17;;;;;;;22.07;2.77;;;;;;;5.67;73.12;100454.84;5053986;28;20064;-42
2021/12/07 12:48:54;;;;;;;18.52;2.92;;;;;;;5.58;73.07;100441.63;5053859;28;20025;-42
2021/12/07 12:51:20;;;;;;;14.25;2.50;;;;;;;5.52;73.92;100434.25;5053957;28;20150;-41
2021/12/07 12:53:47;;;;;;;26.15;3.17;;;;;;;5.50;74.05;100421.91;5053791;28;20650;-41
2021/12/07 12:56:15;;;;;;;20.23;3.97;;;;;;;5.58;74.13;100420.25;5053561;28;20021;-41
2021/12/07 12:58:44;;;;;;;12.18;3.05;;;;;;;5.38;73.78;100412.50;5052944;28;20029;-41
2021/12/07 13:01:28;;;;;;;;;;;;;;;5.44;74.13;100403.84;5054012;28;20109;-41
2021/12/07 13:04:07;;;;;;;10.07;2.45;;;;;;;5.23;74.19;100395.41;5053416;28;19915;-42
2021/12/07 13:06:37;;;;;;;15.68;3.13;;;;;;;5.25;74.74;100391.59;5053461;28;20036;-41
2021/12/07 13:09:24;;;;;;;23.35;3.67;;;;;;;5.30;74.87;100384.94;5053326;28;20029;-41
2021/12/07 13:12:27;;;;;;;13.57;3.20;;;;;;;5.18;75.33;100381.69;5053092;28;20140;-42
2021/12/07 13:14:54;;;;;;;25.60;4.20;;;;;;;5.00;75.85;100379.94;5052431;28;20292;-41
2021/12/07 13:17:22;;;;;;;19.30;4.60;;;;;;;5.04;76.14;100369.78;5053351;28;20033;-41
2021/12/07 13:20:06;;;;;;;30.98;4.65;;;;;;;5.00;76.45;100377.28;5052917;28;20028;-41
2021/12/07 13:22:43;;;;;;;27.35;4.13;;;;;;;5.03;77.27;100368.97;5052867;28;20025;-41
2021/12/07 13:25:13;;;;;;;20.10;4.88;;;;;;;4.87;77.14;100358.19;5051500;28;20032;-42